Basingstoke, United Kingdom
Current Conditions -  °F | °C
As of 12:50 PM on Friday 19 Dec 2014 (Local Time) from EGVO Reporting Station
Scattered Clouds Scattered Clouds  
Wind Chill:   Ceiling: Unl
Heat Index:   Visibility: 6mi
Dew Point: -1°   Wind: 14mph
Humidity: 50%   Direction: 270°W
Pressure: 30.03"   Gusts: NA
Location:  51.26°N, 1.08°W
Report Text: EGVO 191250Z 27012KT 9999 SCT030 09/M01 Q1017 BLU
Loading
Personal Weather Stations






























Interactive Weather Map New forecast layout! Learn more

10-Day Weather Forecast

Advertisements
Track Severe Weather on mobile